Time;durP1;ratioP1;P1;durP2;ratioP2;P2;SDS_P1;SDS_P2;PMS_P1;PMS_P2;Temp;Humidity;BMP_temperature;BMP_pressure;BME280_temperature;BME280_humidity;BME280_pressure;Samples;Min_cycle;Max_cycle;Signal;HPM_P1;HPM_P2
2023/03/01 00:00:36;;;;;;;;;;;2.80;61.10;;;;;;5093842;28;19916;-35
2023/03/01 00:03:01;;;;;;;;;;;2.80;61.20;;;;;;5093640;28;19912;-40
2023/03/01 00:05:26;;;;;;;;;;;2.80;61.30;;;;;;5093824;28;19934;-40
2023/03/01 00:07:53;;;;;;;;;;;2.80;61.30;;;;;;5093518;28;19908;-35
2023/03/01 00:10:18;;;;;;;;;;;2.80;61.40;;;;;;5093496;28;19973;-38
2023/03/01 00:12:43;;;;;;;;;;;2.80;61.50;;;;;;5093478;28;19908;-35
2023/03/01 00:15:09;;;;;;;;;;;2.80;61.50;;;;;;5093479;28;19915;-36
2023/03/01 00:17:35;;;;;;;;;;;2.70;61.50;;;;;;5092956;28;20379;-36
2023/03/01 00:20:00;;;;;;;;;;;2.70;62.20;;;;;;5093245;28;19915;-35
2023/03/01 00:22:27;;;;;;;;;;;2.80;61.60;;;;;;5092923;28;19927;-35
2023/03/01 00:24:53;;;;;;;;;;;2.70;61.60;;;;;;5093165;28;19942;-35
2023/03/01 00:27:18;;;;;;;;;;;2.70;61.70;;;;;;5093435;28;19916;-36
2023/03/01 00:29:43;;;;;;;;;;;2.70;61.70;;;;;;5093007;28;20265;-35
2023/03/01 00:32:09;;;;;;;;;;;2.70;61.70;;;;;;5093049;28;19908;-43
2023/03/01 00:34:34;;;;;;;;;;;2.70;61.80;;;;;;5093132;28;19925;-35
2023/03/01 00:37:05;;;;;;;;;;;2.60;61.80;;;;;;5093031;28;19966;-34
2023/03/01 00:39:31;;;;;;;;;;;2.60;61.80;;;;;;5091595;28;20351;-37
2023/03/01 00:41:56;;;;;;;;;;;2.60;61.80;;;;;;5092221;28;20385;-38
2023/03/01 00:44:22;;;;;;;;;;;2.60;61.80;;;;;;5092870;28;20042;-35
2023/03/01 00:46:47;;;;;;;;;;;2.60;61.90;;;;;;5092913;28;20299;-35
2023/03/01 00:49:13;;;;;;;;;;;2.60;61.90;;;;;;5092684;28;19908;-35
2023/03/01 00:51:41;;;;;;;;;;;2.60;61.90;;;;;;5092859;28;20378;-35
2023/03/01 00:54:09;;;;;;;;;;;2.60;62.00;;;;;;5092765;28;19916;-36
2023/03/01 00:56:35;;;;;;;;;;;2.60;62.00;;;;;;5092578;28;19930;-35
2023/03/01 00:59:00;;;;;;;;;;;2.50;62.10;;;;;;5092616;28;19916;-35
2023/03/01 01:01:29;;;;;;;;;;;2.50;62.10;;;;;;5091969;28;19908;-35
2023/03/01 01:03:58;;;;;;;;;;;2.50;62.20;;;;;;5092065;28;19912;-32
2023/03/01 01:06:25;;;;;;;;;;;2.40;62.30;;;;;;5092473;28;20371;-33
2023/03/01 01:08:51;;;;;;;;;;;2.40;62.30;;;;;;5092628;28;19919;-35
2023/03/01 01:11:17;;;;;;;;;;;2.40;62.40;;;;;;5092432;28;20437;-37
2023/03/01 01:13:43;;;;;;;;;;;2.30;62.40;;;;;;5092407;28;19938;-35
2023/03/01 01:16:09;;;;;;;;;;;2.30;62.50;;;;;;5092288;28;19908;-35
2023/03/01 01:18:34;;;;;;;;;;;2.30;62.60;;;;;;5092502;28;20383;-35
2023/03/01 01:21:08;;;;;;;;;;;2.30;62.60;;;;;;5092121;28;20502;-36
2023/03/01 01:23:33;;;;;;;;;;;2.20;62.70;;;;;;5092334;28;20127;-35
2023/03/01 01:26:05;;;;;;;;;;;2.20;62.80;;;;;;5092063;28;20359;-40
2023/03/01 01:28:31;;;;;;;;;;;2.20;62.80;;;;;;5092130;28;19994;-35
2023/03/01 01:30:57;;;;;;;;;;;2.10;62.80;;;;;;5092285;28;19916;-35
2023/03/01 01:33:22;;;;;;;;;;;2.20;62.90;;;;;;5091939;28;19918;-35
2023/03/01 01:35:48;;;;;;;;;;;2.10;62.90;;;;;;5092044;28;19916;-35
2023/03/01 01:38:13;;;;;;;;;;;2.10;63.00;;;;;;5091772;28;20382;-35
2023/03/01 01:40:43;;;;;;;;;;;2.10;63.10;;;;;;5092126;28;19916;-35
2023/03/01 01:43:21;;;;;;;;;;;2.10;63.20;;;;;;5091867;28;19939;-36
2023/03/01 01:45:46;;;;;;;;;;;2.00;63.20;;;;;;5091845;28;20324;-35
2023/03/01 01:48:14;;;;;;;;;;;2.00;63.30;;;;;;5092152;28;19954;-38
2023/03/01 01:50:40;;;;;;;;;;;1.90;63.30;;;;;;5091827;28;19920;-35
2023/03/01 01:53:09;;;;;;;;;;;1.90;63.40;;;;;;5090998;28;19916;-34
2023/03/01 01:55:36;;;;;;;;;;;1.90;63.40;;;;;;5090803;28;19912;-37
2023/03/01 01:58:03;;;;;;;;;;;1.90;63.40;;;;;;5091617;28;19938;-33
2023/03/01 02:00:29;;;;;;;;;;;1.90;63.50;;;;;;5091678;28;19931;-35
2023/03/01 02:03:00;;;;;;;;;;;1.90;63.60;;;;;;5091474;28;19920;-35
2023/03/01 02:05:32;;;;;;;;;;;1.90;63.60;;;;;;5091541;28;20295;-34
2023/03/01 02:07:58;;;;;;;;;;;1.80;63.60;;;;;;5091438;28;19919;-35
2023/03/01 02:10:24;;;;;;;;;;;1.80;64.30;;;;;;5091035;28;20359;-34
2023/03/01 02:12:50;;;;;;;;;;;1.80;63.80;;;;;;5091449;28;19912;-35
2023/03/01 02:15:15;;;;;;;;;;;1.80;63.80;;;;;;5091360;28;19918;-33
2023/03/01 02:17:41;;;;;;;;;;;1.80;63.80;;;;;;5091440;28;19912;-38
2023/03/01 02:20:25;;;;;;;;;;;1.80;63.90;;;;;;5091501;28;19927;-32
2023/03/01 02:22:51;;;;;;;;;;;1.70;63.90;;;;;;5091137;28;19935;-40
2023/03/01 02:25:20;;;;;;;;;;;1.70;64.00;;;;;;5091125;28;20392;-37
2023/03/01 02:27:52;;;;;;;;;;;1.60;64.00;;;;;;5091162;28;20250;-35
2023/03/01 02:30:18;;;;;;;;;;;1.60;64.20;;;;;;5091067;28;19916;-34
2023/03/01 02:32:44;;;;;;;;;;;1.60;64.20;;;;;;5090981;28;19957;-35
2023/03/01 02:35:11;;;;;;;;;;;1.60;64.40;;;;;;5090962;28;19916;-35
2023/03/01 02:37:38;;;;;;;;;;;1.50;64.30;;;;;;5090969;28;19916;-34
2023/03/01 02:40:11;;;;;;;;;;;1.60;64.50;;;;;;5091026;28;19912;-35
2023/03/01 02:42:41;;;;;;;;;;;1.60;64.50;;;;;;5090702;28;19919;-38
2023/03/01 02:45:07;;;;;;;;;;;1.50;64.60;;;;;;5090792;28;20402;-34
2023/03/01 02:47:32;;;;;;;;;;;1.60;64.60;;;;;;5090870;28;19912;-35
2023/03/01 02:49:58;;;;;;;;;;;1.50;64.60;;;;;;5090920;28;19912;-36
2023/03/01 02:52:53;;;;;;;;;;;1.50;64.70;;;;;;5090877;28;19912;-35
2023/03/01 02:55:18;;;;;;;;;;;1.50;64.70;;;;;;5081760;28;19939;-36
2023/03/01 02:57:45;;;;;;;;;;;1.50;64.90;;;;;;5090842;28;20324;-34
2023/03/01 03:00:18;;;;;;;;;;;1.50;65.00;;;;;;5090633;28;19950;-35
2023/03/01 03:02:48;;;;;;;;;;;1.50;65.00;;;;;;5090202;28;19923;-34
2023/03/01 03:05:16;;;;;;;;;;;1.50;65.00;;;;;;5093437;28;19912;-34
2023/03/01 03:07:43;;;;;;;;;;;1.50;65.00;;;;;;5094349;28;19912;-33
2023/03/01 03:10:11;;;;;;;;;;;1.40;65.00;;;;;;5094223;28;19912;-38
2023/03/01 03:12:36;;;;;;;;;;;1.50;65.10;;;;;;5094730;28;19912;-35
2023/03/01 03:15:08;;;;;;;;;;;1.50;65.20;;;;;;5094551;28;19947;-33
2023/03/01 03:17:35;;;;;;;;;;;1.40;65.20;;;;;;5094654;28;20407;-35
2023/03/01 03:20:00;;;;;;;;;;;1.40;65.20;;;;;;5094347;28;20390;-33
2023/03/01 03:22:28;;;;;;;;;;;1.50;65.20;;;;;;5093749;28;19920;-32
2023/03/01 03:24:54;;;;;;;;;;;1.40;65.20;;;;;;5094142;28;19912;-35
2023/03/01 03:27:19;;;;;;;;;;;1.50;65.30;;;;;;5093928;28;19912;-35
2023/03/01 03:29:45;;;;;;;;;;;1.40;65.30;;;;;;5094185;28;19912;-35
2023/03/01 03:32:10;;;;;;;;;;;1.40;65.30;;;;;;5094236;28;20264;-36
2023/03/01 03:34:36;;;;;;;;;;;1.40;65.40;;;;;;5093836;28;19912;-35
2023/03/01 03:37:01;;;;;;;;;;;1.40;65.50;;;;;;5093799;28;19935;-35
2023/03/01 03:39:27;;;;;;;;;;;1.40;65.50;;;;;;5093714;28;19916;-34
2023/03/01 03:41:53;;;;;;;;;;;1.40;65.50;;;;;;5092332;28;20283;-33
2023/03/01 03:44:18;;;;;;;;;;;1.30;65.60;;;;;;5093786;28;19912;-35
2023/03/01 03:46:44;;;;;;;;;;;1.40;65.60;;;;;;5093449;28;19912;-35
2023/03/01 03:49:09;;;;;;;;;;;1.40;65.70;;;;;;5093676;28;19912;-35
2023/03/01 03:51:35;;;;;;;;;;;1.40;65.80;;;;;;5092214;28;19912;-35
2023/03/01 03:54:00;;;;;;;;;;;1.40;65.70;;;;;;5093562;28;20402;-35
2023/03/01 03:56:26;;;;;;;;;;;1.40;65.70;;;;;;5093522;28;19930;-35
2023/03/01 03:58:52;;;;;;;;;;;1.40;65.70;;;;;;5093577;28;19957;-35
2023/03/01 04:01:17;;;;;;;;;;;1.40;65.70;;;;;;5093378;28;20276;-35
2023/03/01 04:03:46;;;;;;;;;;;1.40;65.70;;;;;;5093606;28;19969;-35
2023/03/01 04:06:12;;;;;;;;;;;1.40;65.80;;;;;;5093375;28;19961;-36
2023/03/01 04:08:38;;;;;;;;;;;1.40;65.80;;;;;;5093051;28;19912;-35
2023/03/01 04:11:25;;;;;;;;;;;1.40;65.90;;;;;;5093050;28;20424;-35
2023/03/01 04:13:50;;;;;;;;;;;1.30;65.90;;;;;;5093035;28;19976;-36
2023/03/01 04:16:16;;;;;;;;;;;1.40;66.00;;;;;;5092218;28;19956;-36
2023/03/01 04:18:41;;;;;;;;;;;1.40;66.00;;;;;;5093311;28;19939;-35
2023/03/01 04:21:07;;;;;;;;;;;1.40;66.00;;;;;;5093169;28;19923;-31
2023/03/01 04:23:32;;;;;;;;;;;1.30;66.00;;;;;;5092944;28;19916;-35
2023/03/01 04:25:58;;;;;;;;;;;1.30;66.00;;;;;;5091671;28;20379;-32
2023/03/01 04:28:24;;;;;;;;;;;1.30;66.00;;;;;;5093184;28;20007;-36
2023/03/01 04:30:50;;;;;;;;;;;1.40;66.10;;;;;;5093107;28;19913;-35
2023/03/01 04:33:16;;;;;;;;;;;1.40;66.10;;;;;;5092559;28;19926;-35
2023/03/01 04:35:41;;;;;;;;;;;1.40;66.20;;;;;;5092573;28;20371;-35
2023/03/01 04:38:07;;;;;;;;;;;1.40;66.20;;;;;;5093219;28;19916;-35
2023/03/01 04:40:33;;;;;;;;;;;1.40;66.30;;;;;;5092921;28;19965;-36
2023/03/01 04:42:58;;;;;;;;;;;1.40;66.30;;;;;;5093034;28;19916;-34
2023/03/01 04:45:24;;;;;;;;;;;1.40;66.30;;;;;;5092796;28;20048;-33
2023/03/01 04:47:51;;;;;;;;;;;1.40;66.40;;;;;;5093071;28;19912;-35
2023/03/01 04:50:20;;;;;;;;;;;1.30;66.30;;;;;;5092722;28;19926;-35
2023/03/01 04:52:46;;;;;;;;;;;1.30;66.30;;;;;;5093342;28;19992;-33
2023/03/01 04:55:12;;;;;;;;;;;1.30;66.30;;;;;;5092447;28;19918;-35
2023/03/01 04:57:38;;;;;;;;;;;1.30;66.30;;;;;;5092407;28;19916;-34
2023/03/01 05:00:20;;;;;;;;;;;1.40;66.30;;;;;;5092545;28;20370;-34
2023/03/01 05:02:49;;;;;;;;;;;1.40;66.30;;;;;;5092415;28;20035;-32
2023/03/01 05:05:15;;;;;;;;;;;1.30;66.30;;;;;;5092578;28;19994;-35
2023/03/01 05:07:40;;;;;;;;;;;1.30;66.30;;;;;;5092663;28;20384;-35
2023/03/01 05:10:06;;;;;;;;;;;1.30;66.30;;;;;;5092571;28;20011;-34
2023/03/01 05:12:31;;;;;;;;;;;1.30;66.30;;;;;;5092486;28;19935;-35
2023/03/01 05:14:58;;;;;;;;;;;1.30;66.30;;;;;;5092129;28;19973;-35
2023/03/01 05:17:23;;;;;;;;;;;1.30;66.30;;;;;;5092183;28;19913;-36
2023/03/01 05:19:49;;;;;;;;;;;1.30;66.40;;;;;;5092297;28;20294;-35
2023/03/01 05:22:15;;;;;;;;;;;1.30;66.50;;;;;;5090598;28;20454;-34
2023/03/01 05:24:40;;;;;;;;;;;1.20;66.50;;;;;;5090639;28;19916;-37
2023/03/01 05:27:06;;;;;;;;;;;1.20;66.50;;;;;;5091868;28;20416;-34
2023/03/01 05:29:34;;;;;;;;;;;1.20;66.60;;;;;;5091961;28;19912;-36
2023/03/01 05:32:02;;;;;;;;;;;1.20;66.70;;;;;;5092099;28;19954;-39
2023/03/01 05:34:29;;;;;;;;;;;1.20;66.70;;;;;;5091756;28;19958;-33
2023/03/01 05:36:55;;;;;;;;;;;1.20;66.70;;;;;;5091642;28;19912;-33
2023/03/01 05:39:23;;;;;;;;;;;1.20;66.80;;;;;;5091474;28;19919;-35
2023/03/01 05:41:53;;;;;;;;;;;1.20;66.90;;;;;;5091625;28;19912;-33
2023/03/01 05:44:18;;;;;;;;;;;1.20;66.90;;;;;;5091774;28;20287;-41
2023/03/01 05:46:44;;;;;;;;;;;1.20;66.90;;;;;;5091909;28;19912;-32
2023/03/01 05:49:10;;;;;;;;;;;1.20;66.90;;;;;;5091796;28;19916;-35
2023/03/01 05:51:36;;;;;;;;;;;1.20;67.00;;;;;;5091622;28;19912;-32
2023/03/01 05:54:01;;;;;;;;;;;1.20;67.00;;;;;;5091533;28;20003;-35
2023/03/01 05:56:27;;;;;;;;;;;1.20;67.00;;;;;;5091479;28;19916;-32
2023/03/01 05:58:53;;;;;;;;;;;1.20;67.10;;;;;;5091573;28;20007;-35
2023/03/01 06:01:18;;;;;;;;;;;1.20;67.10;;;;;;5091725;28;19912;-33
2023/03/01 06:03:43;;;;;;;;;;;1.20;67.10;;;;;;5091550;28;19962;-36
2023/03/01 06:06:09;;;;;;;;;;;1.20;67.10;;;;;;5090164;28;19919;-35
2023/03/01 06:08:34;;;;;;;;;;;1.20;67.10;;;;;;5091514;28;19916;-35
2023/03/01 06:11:00;;;;;;;;;;;1.20;67.20;;;;;;5091232;28;19908;-36
2023/03/01 06:13:25;;;;;;;;;;;1.20;67.10;;;;;;5090049;28;20162;-34
2023/03/01 06:15:51;;;;;;;;;;;1.20;67.20;;;;;;5092080;28;19912;-35
2023/03/01 06:18:17;;;;;;;;;;;1.20;67.20;;;;;;5091614;28;20010;-36
2023/03/01 06:20:42;;;;;;;;;;;1.20;67.30;;;;;;5091288;28;19920;-37
2023/03/01 06:23:08;;;;;;;;;;;1.20;67.20;;;;;;5091183;28;19963;-35
2023/03/01 06:25:33;;;;;;;;;;;1.20;67.30;;;;;;5091394;28;19912;-35
2023/03/01 06:27:59;;;;;;;;;;;1.20;67.30;;;;;;5091211;28;19935;-34
2023/03/01 06:30:25;;;;;;;;;;;1.20;67.40;;;;;;5091632;28;19935;-32
2023/03/01 06:32:51;;;;;;;;;;;1.20;67.50;;;;;;5091476;28;19912;-35
2023/03/01 06:35:17;;;;;;;;;;;1.20;67.50;;;;;;5091569;28;20394;-35
2023/03/01 06:37:43;;;;;;;;;;;1.20;67.60;;;;;;5091555;28;19912;-36
2023/03/01 06:40:11;;;;;;;;;;;1.20;67.70;;;;;;5092607;28;19947;-32
2023/03/01 06:42:37;;;;;;;;;;;1.20;67.70;;;;;;5095241;28;19916;-34
2023/03/01 06:45:04;;;;;;;;;;;1.20;67.70;;;;;;5095204;28;19961;-35
2023/03/01 06:47:29;;;;;;;;;;;1.20;67.70;;;;;;5095173;28;20343;-35
2023/03/01 06:49:55;;;;;;;;;;;1.30;67.70;;;;;;5094713;28;20023;-33
2023/03/01 06:52:20;;;;;;;;;;;1.30;67.70;;;;;;5095090;28;20032;-35
2023/03/01 06:54:46;;;;;;;;;;;1.30;67.70;;;;;;5095108;28;20027;-32
2023/03/01 06:57:11;;;;;;;;;;;1.30;67.70;;;;;;5094869;28;19912;-36
2023/03/01 06:59:37;;;;;;;;;;;1.30;67.70;;;;;;5094728;28;19916;-35
2023/03/01 07:02:02;;;;;;;;;;;1.40;67.70;;;;;;5094512;28;19965;-35
2023/03/01 07:04:31;;;;;;;;;;;1.40;67.70;;;;;;5094476;28;20011;-35
2023/03/01 07:06:56;;;;;;;;;;;1.40;67.60;;;;;;5094598;28;19959;-34
2023/03/01 07:09:22;;;;;;;;;;;1.50;67.60;;;;;;5094747;28;19972;-35
2023/03/01 07:11:48;;;;;;;;;;;1.50;67.60;;;;;;5093271;28;19965;-34
2023/03/01 07:14:14;;;;;;;;;;;1.50;67.50;;;;;;5093557;28;19994;-36
2023/03/01 07:16:39;;;;;;;;;;;1.50;67.50;;;;;;5094402;28;20454;-34
2023/03/01 07:19:05;;;;;;;;;;;1.60;67.50;;;;;;5094665;28;19912;-35
2023/03/01 07:21:31;;;;;;;;;;;1.60;67.50;;;;;;5094419;28;20371;-35
2023/03/01 07:23:56;;;;;;;;;;;1.70;67.40;;;;;;5094217;28;19924;-35
2023/03/01 07:26:22;;;;;;;;;;;1.70;67.30;;;;;;5094314;28;19919;-35
2023/03/01 07:28:48;;;;;;;;;;;1.70;67.20;;;;;;5094312;28;20002;-35
2023/03/01 07:31:13;;;;;;;;;;;1.80;67.10;;;;;;5094545;28;20010;-36
2023/03/01 07:33:39;;;;;;;;;;;1.90;67.10;;;;;;5094213;28;20303;-34
2023/03/01 07:36:05;;;;;;;;;;;1.90;67.00;;;;;;5094161;28;19912;-35
2023/03/01 07:38:30;;;;;;;;;;;2.00;66.90;;;;;;5093851;28;20310;-32
2023/03/01 07:41:00;;;;;;;;;;;2.00;66.90;;;;;;5094328;28;19970;-35
2023/03/01 07:43:26;;;;;;;;;;;2.10;66.80;;;;;;5094231;28;20387;-34
2023/03/01 07:45:51;;;;;;;;;;;2.20;66.80;;;;;;5094041;28;19919;-35
2023/03/01 07:48:17;;;;;;;;;;;2.20;66.60;;;;;;5093863;28;20318;-35
2023/03/01 07:50:43;;;;;;;;;;;2.30;66.60;;;;;;5094051;28;19916;-36
2023/03/01 07:53:09;;;;;;;;;;;2.40;66.50;;;;;;5093890;28;19912;-35
2023/03/01 07:55:34;;;;;;;;;;;2.50;66.40;;;;;;5093802;28;19942;-36
2023/03/01 07:58:00;;;;;;;;;;;2.50;66.30;;;;;;5093830;28;20420;-35
2023/03/01 08:00:25;;;;;;;;;;;2.60;66.20;;;;;;5093644;28;19920;-35
2023/03/01 08:02:51;;;;;;;;;;;2.60;66.10;;;;;;5093472;28;19916;-33
2023/03/01 08:05:16;;;;;;;;;;;2.70;66.10;;;;;;5093704;28;19963;-35
2023/03/01 08:07:42;;;;;;;;;;;2.80;66.30;;;;;;5093731;28;20015;-40
2023/03/01 08:10:08;;;;;;;;;;;2.80;66.10;;;;;;5093614;28;20363;-35
2023/03/01 08:12:33;;;;;;;;;;;2.90;66.10;;;;;;5093844;28;19912;-37
2023/03/01 08:14:59;;;;;;;;;;;2.90;66.00;;;;;;5093525;28;19912;-33
2023/03/01 08:17:24;;;;;;;;;;;3.00;65.90;;;;;;5093391;28;19966;-35
2023/03/01 08:19:50;;;;;;;;;;;3.10;65.80;;;;;;5092134;28;20288;-35
2023/03/01 08:22:15;;;;;;;;;;;3.10;65.70;;;;;;5092974;28;19915;-35
2023/03/01 08:24:41;;;;;;;;;;;3.20;65.70;;;;;;5093207;28;20054;-33
2023/03/01 08:27:06;;;;;;;;;;;3.20;65.50;;;;;;5093222;28;20330;-35
2023/03/01 08:29:32;;;;;;;;;;;3.30;65.40;;;;;;5093402;28;20311;-36
2023/03/01 08:31:58;;;;;;;;;;;3.30;65.30;;;;;;5093051;28;20353;-35
2023/03/01 08:34:23;;;;;;;;;;;3.40;65.30;;;;;;5093041;28;19938;-35
2023/03/01 08:36:50;;;;;;;;;;;3.40;65.20;;;;;;5092899;28;19912;-35
2023/03/01 08:39:16;;;;;;;;;;;3.50;65.10;;;;;;5093000;28;19962;-35
2023/03/01 08:41:42;;;;;;;;;;;3.50;65.10;;;;;;5092709;28;19919;-35
2023/03/01 08:44:08;;;;;;;;;;;3.60;65.00;;;;;;5092699;28;19916;-39
2023/03/01 08:46:38;;;;;;;;;;;3.60;65.00;;;;;;5092712;28;19912;-35
2023/03/01 08:49:05;;;;;;;;;;;3.70;65.20;;;;;;5091379;28;19912;-35
2023/03/01 08:51:32;;;;;;;;;;;3.80;65.50;;;;;;5092684;28;20060;-33
2023/03/01 08:53:57;;;;;;;;;;;3.90;65.60;;;;;;5092360;28;19916;-34
2023/03/01 08:56:23;;;;;;;;;;;3.90;65.40;;;;;;5091419;28;20284;-35
2023/03/01 08:58:49;;;;;;;;;;;4.00;65.40;;;;;;5091615;28;20006;-34
2023/03/01 09:01:16;;;;;;;;;;;4.10;65.80;;;;;;5091522;28;19912;-39
2023/03/01 09:03:42;;;;;;;;;;;4.20;66.30;;;;;;5092370;28;19916;-34
2023/03/01 09:06:08;;;;;;;;;;;4.20;67.00;;;;;;5092563;28;19912;-35
2023/03/01 09:08:37;;;;;;;;;;;4.30;68.10;;;;;;5092610;28;19927;-36
2023/03/01 09:11:03;;;;;;;;;;;4.30;68.60;;;;;;5091550;28;19912;-35
2023/03/01 09:13:30;;;;;;;;;;;4.40;68.80;;;;;;5092363;28;19962;-33
2023/03/01 09:15:57;;;;;;;;;;;4.40;69.20;;;;;;5092797;28;19977;-36
2023/03/01 09:18:22;;;;;;;;;;;4.50;69.10;;;;;;5092655;28;19919;-35
2023/03/01 09:20:48;;;;;;;;;;;4.50;67.60;;;;;;5092345;28;19916;-35
2023/03/01 09:23:13;;;;;;;;;;;4.50;68.70;;;;;;5092218;28;20003;-35
2023/03/01 09:25:39;;;;;;;;;;;4.50;68.70;;;;;;5092372;28;20011;-44
2023/03/01 09:28:04;;;;;;;;;;;4.60;69.80;;;;;;5092311;28;19919;-37
2023/03/01 09:30:30;;;;;;;;;;;4.60;70.00;;;;;;5092435;28;20408;-33
2023/03/01 09:32:58;;;;;;;;;;;4.70;70.70;;;;;;5092223;28;20367;-38
2023/03/01 09:35:24;;;;;;;;;;;4.70;72.00;;;;;;5092557;28;19912;-36
2023/03/01 09:37:49;;;;;;;;;;;4.70;72.60;;;;;;5092202;28;19919;-35
2023/03/01 09:40:19;;;;;;;;;;;4.80;72.80;;;;;;5092245;28;19912;-36
2023/03/01 09:42:48;;;;;;;;;;;4.80;73.10;;;;;;5091905;28;19962;-35
2023/03/01 09:45:22;;;;;;;;;;;4.90;73.70;;;;;;5092124;28;19912;-35
2023/03/01 09:47:48;;;;;;;;;;;4.90;74.50;;;;;;5092046;28;20444;-35
2023/03/01 09:50:20;;;;;;;;;;;5.00;74.70;;;;;;5091724;28;19919;-35
2023/03/01 09:52:58;;;;;;;;;;;5.00;74.50;;;;;;5092008;28;19985;-35
2023/03/01 09:55:30;;;;;;;;;;;5.00;74.60;;;;;;5091845;28;19916;-44
2023/03/01 09:57:59;;;;;;;;;;;5.10;74.80;;;;;;5091860;28;19912;-36
2023/03/01 10:00:33;;;;;;;;;;;5.10;74.10;;;;;;5091651;28;19916;-35
2023/03/01 10:03:22;;;;;;;;;;;5.10;73.20;;;;;;5091640;28;19927;-35
2023/03/01 10:05:52;;;;;;;;;;;5.20;74.00;;;;;;5092106;28;19916;-32
2023/03/01 10:08:35;;;;;;;;;;;5.20;74.90;;;;;;5091790;28;20428;-35
2023/03/01 10:11:01;;;;;;;;;;;5.20;75.10;;;;;;5091645;28;19912;-35
2023/03/01 10:13:39;;;;;;;;;;;5.20;75.70;;;;;;5091735;28;20334;-34
2023/03/01 10:16:15;;;;;;;;;;;5.30;76.50;;;;;;5096168;28;20007;-36
2023/03/01 10:18:40;;;;;;;;;;;5.30;77.10;;;;;;5095983;28;19947;-35
2023/03/01 10:21:18;;;;;;;;;;;5.40;76.90;;;;;;5096025;28;19951;-36
2023/03/01 10:23:43;;;;;;;;;;;5.40;76.30;;;;;;5095702;28;20352;-35
2023/03/01 10:26:12;;;;;;;;;;;5.50;76.30;;;;;;5095877;28;19999;-35
2023/03/01 10:28:44;;;;;;;;;;;5.60;76.80;;;;;;5095720;28;19916;-35
2023/03/01 10:31:13;;;;;;;;;;;5.60;76.10;;;;;;5095576;28;20342;-35
2023/03/01 10:33:41;;;;;;;;;;;5.60;76.10;;;;;;5095715;28;19971;-33
2023/03/01 10:36:07;;;;;;;;;;;5.60;75.70;;;;;;5095665;28;19923;-36
2023/03/01 10:38:48;;;;;;;;;;;5.70;75.70;;;;;;5095446;28;19912;-35
2023/03/01 10:41:13;;;;;;;;;;;5.70;75.90;;;;;;5095545;28;19973;-46
2023/03/01 10:43:47;;;;;;;;;;;5.80;75.70;;;;;;5095363;28;19959;-38
2023/03/01 10:46:22;;;;;;;;;;;5.80;75.70;;;;;;5095586;28;19960;-35
2023/03/01 10:49:05;;;;;;;;;;;5.90;75.50;;;;;;5095392;28;20286;-35
2023/03/01 10:51:30;;;;;;;;;;;6.00;76.00;;;;;;5095172;28;19968;-35
2023/03/01 10:53:56;;;;;;;;;;;6.00;76.00;;;;;;5095204;28;20431;-36
2023/03/01 10:56:21;;;;;;;;;;;6.10;75.90;;;;;;5095098;28;19919;-35
2023/03/01 10:58:57;;;;;;;;;;;6.20;75.70;;;;;;5095099;28;19931;-36
2023/03/01 11:01:23;;;;;;;;;;;6.30;75.30;;;;;;5094976;28;19912;-35
2023/03/01 11:04:06;;;;;;;;;;;6.40;74.90;;;;;;5094886;28;19916;-36
2023/03/01 11:06:35;;;;;;;;;;;6.40;74.90;;;;;;5094822;28;19992;-35
2023/03/01 11:09:21;;;;;;;;;;;6.50;74.50;;;;;;5094805;28;19966;-34
2023/03/01 11:11:52;;;;;;;;;;;6.60;74.00;;;;;;5094150;28;19935;-38
2023/03/01 11:14:18;;;;;;;;;;;6.60;73.80;;;;;;5094839;28;19966;-38
2023/03/01 11:16:45;;;;;;;;;;;6.70;71.70;;;;;;5094754;28;19912;-36
2023/03/01 11:19:10;;;;;;;;;;;6.70;72.90;;;;;;5094747;28;20003;-36
2023/03/01 11:21:48;;;;;;;;;;;6.70;71.10;;;;;;5094457;28;20353;-37
2023/03/01 11:24:15;;;;;;;;;;;6.70;72.00;;;;;;5094393;28;20005;-41
2023/03/01 11:26:42;;;;;;;;;;;6.80;70.70;;;;;;5094185;28;20363;-34
2023/03/01 11:29:15;;;;;;;;;;;6.80;70.90;;;;;;5094461;28;19927;-35
2023/03/01 11:31:41;;;;;;;;;;;6.80;71.00;;;;;;5094257;28;19912;-32
2023/03/01 11:34:13;;;;;;;;;;;6.80;70.30;;;;;;5094283;28;19916;-36
2023/03/01 11:36:45;;;;;;;;;;;6.90;70.40;;;;;;5094281;28;19913;-35
2023/03/01 11:39:11;;;;;;;;;;;7.00;70.10;;;;;;5094100;28;19955;-31
2023/03/01 11:41:39;;;;;;;;;;;7.10;69.00;;;;;;5094242;28;20387;-35
2023/03/01 11:44:08;;;;;;;;;;;7.10;71.20;;;;;;5094071;28;20384;-35
2023/03/01 11:46:39;;;;;;;;;;;7.10;67.90;;;;;;5094009;28;19912;-36
2023/03/01 11:49:19;;;;;;;;;;;7.10;64.20;;;;;;5094068;28;19912;-35
2023/03/01 11:52:02;;;;;;;;;;;7.10;66.10;;;;;;5093902;28;19940;-36
2023/03/01 11:54:31;;;;;;;;;;;7.00;67.40;;;;;;5094277;28;20384;-36
2023/03/01 11:57:36;;;;;;;;;;;7.00;67.30;;;;;;5093982;28;20014;-37
2023/03/01 12:00:20;;;;;;;;;;;7.10;63.30;;;;;;5051254;28;20019;-33
2023/03/01 12:02:54;;;;;;;;;;;7.10;66.10;;;;;;5051201;28;20323;-46
2023/03/01 12:05:46;;;;;;;;;;;7.10;63.60;;;;;;5079582;28;19947;-35
2023/03/01 12:08:14;;;;;;;;;;;7.10;65.00;;;;;;5093911;28;20099;-35
2023/03/01 12:10:56;;;;;;;;;;;7.20;66.10;;;;;;5094132;28;20367;-35
2023/03/01 12:13:40;;;;;;;;;;;7.30;65.50;;;;;;5092344;28;20333;-36
2023/03/01 12:16:18;;;;;;;;;;;7.30;65.60;;;;;;5093616;28;19909;-38
2023/03/01 12:18:43;;;;;;;;;;;7.40;65.20;;;;;;5093748;28;20534;-40
2023/03/01 12:21:14;;;;;;;;;;;7.40;65.70;;;;;;5092292;28;19908;-33
2023/03/01 12:23:46;;;;;;;;;;;7.50;65.70;;;;;;5093443;28;20389;-35
2023/03/01 12:26:32;;;;;;;;;;;7.50;57.40;;;;;;5092318;28;19909;-35
2023/03/01 12:29:07;;;;;;;;;;;7.50;62.50;;;;;;5093709;28;19922;-36
2023/03/01 12:31:37;;;;;;;;;;;7.50;64.70;;;;;;5093323;28;19919;-35
2023/03/01 12:34:11;;;;;;;;;;;7.60;65.60;;;;;;5093292;28;19908;-35
2023/03/01 12:36:54;;;;;;;;;;;7.70;66.10;;;;;;5092341;28;19908;-36
2023/03/01 12:39:20;;;;;;;;;;;7.80;67.20;;;;;;5093129;28;19960;-34
2023/03/01 12:41:56;;;;;;;;;;;7.90;66.30;;;;;;5093217;28;20003;-36
2023/03/01 12:44:29;;;;;;;;;;;8.00;66.80;;;;;;5093007;28;19965;-35
2023/03/01 12:46:54;;;;;;;;;;;8.00;66.40;;;;;;5092980;28;19908;-35
2023/03/01 12:49:28;;;;;;;;;;;8.10;67.90;;;;;;5092643;28;20232;-32
2023/03/01 12:51:57;;;;;;;;;;;8.20;67.60;;;;;;5092753;28;20109;-35
2023/03/01 12:54:26;;;;;;;;;;;8.20;65.50;;;;;;5093075;28;19919;-35
2023/03/01 12:56:53;;;;;;;;;;;8.30;68.00;;;;;;5092981;28;20264;-33
2023/03/01 12:59:30;;;;;;;;;;;8.30;68.40;;;;;;5092827;28;20002;-36
2023/03/01 13:02:01;;;;;;;;;;;8.40;67.90;;;;;;5092656;28;19908;-35
2023/03/01 13:04:31;;;;;;;;;;;8.40;69.20;;;;;;5093017;28;20009;-36
2023/03/01 13:06:57;;;;;;;;;;;8.40;68.50;;;;;;5092600;28;20294;-38
2023/03/01 13:09:43;;;;;;;;;;;8.50;69.10;;;;;;5092778;28;19908;-35
2023/03/01 13:12:27;;;;;;;;;;;8.60;69.10;;;;;;5092450;28;19908;-37
2023/03/01 13:14:54;;;;;;;;;;;8.60;71.00;;;;;;5092600;28;19915;-35
2023/03/01 13:17:29;;;;;;;;;;;8.70;70.00;;;;;;5092445;28;19912;-34
2023/03/01 13:19:56;;;;;;;;;;;8.70;69.30;;;;;;5092752;28;19923;-42
2023/03/01 13:22:27;;;;;;;;;;;8.70;69.20;;;;;;5092202;28;19923;-33
2023/03/01 13:25:00;;;;;;;;;;;8.80;69.30;;;;;;5092460;28;19912;-34
2023/03/01 13:27:29;;;;;;;;;;;8.80;67.10;;;;;;5091487;28;20219;-35
2023/03/01 13:30:05;;;;;;;;;;;8.90;69.60;;;;;;5092152;28;19920;-33
2023/03/01 13:32:38;;;;;;;;;;;8.90;70.10;;;;;;5092395;28;19912;-35
2023/03/01 13:35:16;;;;;;;;;;;8.90;69.90;;;;;;5092092;28;19949;-34
2023/03/01 13:37:42;;;;;;;;;;;9.00;70.00;;;;;;5092026;28;19919;-36
2023/03/01 13:40:28;;;;;;;;;;;9.00;68.90;;;;;;5092012;28;19913;-36
2023/03/01 13:42:54;;;;;;;;;;;9.00;68.90;;;;;;5070482;28;19916;-38
2023/03/01 13:45:22;;;;;;;;;;;9.00;60.10;;;;;;5092312;28;19912;-34
2023/03/01 13:47:50;;;;;;;;;;;9.00;60.90;;;;;;5091915;28;19963;-36
2023/03/01 13:50:26;;;;;;;;;;;9.00;59.60;;;;;;5092307;28;19951;-36
2023/03/01 13:52:54;;;;;;;;;;;9.00;59.90;;;;;;5092235;28;19937;-35
2023/03/01 13:55:23;;;;;;;;;;;9.00;60.80;;;;;;5091888;28;19912;-35
2023/03/01 13:57:53;;;;;;;;;;;9.00;61.50;;;;;;5091759;28;20398;-35
2023/03/01 14:00:30;;;;;;;;;;;9.10;61.60;;;;;;5092178;28;20383;-35
2023/03/01 14:03:04;;;;;;;;;;;9.20;62.80;;;;;;5091709;28;19987;-35
2023/03/01 14:05:30;;;;;;;;;;;9.20;63.40;;;;;;5091842;28;19961;-32
2023/03/01 14:07:56;;;;;;;;;;;9.30;63.10;;;;;;5091728;28;20393;-35
2023/03/01 14:10:21;;;;;;;;;;;9.40;63.10;;;;;;5091683;28;19920;-35
2023/03/01 14:13:09;;;;;;;;;;;9.50;58.20;;;;;;5091609;28;20398;-38
2023/03/01 14:15:38;;;;;;;;;;;9.50;58.00;;;;;;5091526;28;19920;-35
2023/03/01 14:18:09;;;;;;;;;;;9.40;55.90;;;;;;5091743;28;19923;-35
2023/03/01 14:20:42;;;;;;;;;;;9.50;58.80;;;;;;5091718;28;19919;-35
2023/03/01 14:23:12;;;;;;;;;;;9.50;58.60;;;;;;5091462;28;20419;-41
2023/03/01 14:25:39;;;;;;;;;;;9.60;59.30;;;;;;5091695;28;19958;-36
2023/03/01 14:28:16;;;;;;;;;;;9.70;59.70;;;;;;5091535;28;19912;-39
2023/03/01 14:30:46;;;;;;;;;;;9.70;59.30;;;;;;5091462;28;20259;-33
2023/03/01 14:33:23;;;;;;;;;;;9.80;59.80;;;;;;5091502;28;19912;-39
2023/03/01 14:35:52;;;;;;;;;;;9.80;59.60;;;;;;5091438;28;19975;-40
2023/03/01 14:38:22;;;;;;;;;;;9.80;58.50;;;;;;5091339;28;20390;-43